Time;durP1;ratioP1;P1;durP2;ratioP2;P2;SDS_P1;SDS_P2;PMS_P1;PMS_P2;Temp;Humidity;BMP_temperature;BMP_pressure;BME280_temperature;BME280_humidity;BME280_pressure;Samples;Min_cycle;Max_cycle;Signal;HPM_P1;HPM_P2
2022/10/06 00:02:07;;;;;;;;;0.00;0.00;;;;;17.23;61.81;102246.88;5049930;28;45416;-63
2022/10/06 00:04:33;;;;;;;;;3.50;0.50;;;;;17.21;61.98;102256.84;5058336;28;45420;-63
2022/10/06 00:06:58;;;;;;;;;2.50;1.00;;;;;17.16;61.36;102253.44;5057683;28;45442;-63
2022/10/06 00:09:23;;;;;;;;;3.00;1.75;;;;;17.35;62.01;102289.59;5053952;28;45508;-63
2022/10/06 00:11:49;;;;;;;;;1.50;1.00;;;;;17.26;61.95;102273.75;5058513;28;45430;-63
2022/10/06 00:14:14;;;;;;;;;0.50;0.50;;;;;17.30;61.62;102293.41;5057916;28;45514;-63
2022/10/06 00:16:39;;;;;;;;;3.00;1.00;;;;;17.17;61.52;102274.97;5058295;28;45465;-63
2022/10/06 00:19:05;;;;;;;;;1.00;1.00;;;;;17.14;61.40;102279.56;5057789;28;45449;-63
2022/10/06 00:21:30;;;;;;;;;1.25;0.00;;;;;17.13;61.60;102280.53;5056989;28;45521;-63
2022/10/06 00:23:55;;;;;;;;;3.00;0.25;;;;;17.11;61.60;102288.66;5061293;28;45525;-63
2022/10/06 00:26:21;;;;;;;;;2.00;0.00;;;;;17.14;62.05;102298.47;5061800;28;45540;-63
2022/10/06 00:28:47;;;;;;;;;0.00;0.00;;;;;17.15;61.71;102300.22;5061106;28;45617;-63
2022/10/06 00:31:12;;;;;;;;;2.50;1.00;;;;;17.27;61.75;102337.56;5043057;28;45474;-63
2022/10/06 00:33:37;;;;;;;;;0.75;0.75;;;;;17.15;61.53;102317.28;5061614;28;45390;-63
2022/10/06 00:36:03;;;;;;;;;2.75;1.00;;;;;17.27;61.74;102340.25;5061593;28;45433;-63
2022/10/06 00:38:28;;;;;;;;;1.25;0.25;;;;;17.09;61.80;102322.03;5061205;28;45546;-63
2022/10/06 00:40:54;;;;;;;;;1.00;0.50;;;;;17.06;61.74;102327.50;5057697;28;45400;-63
2022/10/06 00:44:04;;;;;;;;;1.25;0.75;;;;;17.21;61.90;102356.69;5061521;28;45311;-63
2022/10/06 00:46:39;;;;;;;;;2.50;0.00;;;;;17.19;62.12;102358.53;5057247;28;45525;-63
2022/10/06 00:49:14;;;;;;;;;0.50;0.50;;;;;17.13;61.91;102356.06;5028281;28;48432;-63
2022/10/06 00:51:44;;;;;;;;;2.75;0.00;;;;;16.99;61.78;102334.94;5054218;28;45508;-63
2022/10/06 00:54:11;;;;;;;;;1.25;0.00;;;;;17.09;61.72;102352.59;5043212;28;45418;-63
2022/10/06 00:56:39;;;;;;;;;1.25;0.00;;;;;16.99;61.81;102329.53;5061216;28;45542;-63
2022/10/06 00:59:08;;;;;;;;;0.00;0.00;;;;;17.04;61.87;102341.09;5042954;28;48026;-63
2022/10/06 01:01:34;;;;;;;;;5.00;2.00;;;;;16.95;61.76;102325.19;5040555;28;45466;-63
2022/10/06 01:04:06;;;;;;;;;1.25;0.75;;;;;16.97;61.33;102340.41;5061276;28;45418;-63
2022/10/06 01:06:44;;;;;;;;;3.00;0.00;;;;;16.85;61.57;102314.72;5051590;28;45395;-63
2022/10/06 01:09:11;;;;;;;;;2.50;1.00;;;;;16.90;61.34;102335.25;5060732;28;46568;-63
2022/10/06 01:11:37;;;;;;;;;4.50;2.00;;;;;16.84;61.62;102334.53;5061169;28;45521;-63
2022/10/06 01:14:03;;;;;;;;;4.00;1.00;;;;;16.80;61.35;102332.81;5041981;28;45399;-63
2022/10/06 01:16:32;;;;;;;;;1.00;0.00;;;;;16.82;61.40;102349.88;5060964;28;45562;-63
2022/10/06 01:19:02;;;;;;;;;1.50;0.50;;;;;16.82;61.21;102344.47;5060819;28;45321;-63
2022/10/06 01:21:40;;;;;;;;;1.50;0.75;;;;;16.92;61.67;102366.63;5059457;28;45322;-63
2022/10/06 01:24:05;;;;;;;;;1.00;1.00;;;;;16.80;61.59;102348.13;5044653;28;45453;-63
2022/10/06 01:26:38;;;;;;;;;1.50;1.00;;;;;16.93;61.82;102381.03;5060914;28;45374;-63
2022/10/06 01:29:04;;;;;;;;;3.00;0.50;;;;;16.90;61.42;102378.41;5042272;28;47352;-63
2022/10/06 01:31:30;;;;;;;;;0.50;0.00;;;;;16.85;61.77;102368.66;5060803;28;45518;-63
2022/10/06 01:33:55;;;;;;;;;1.75;0.75;;;;;16.95;61.40;102387.25;5047404;28;45534;-63
2022/10/06 01:36:20;;;;;;;;;1.50;0.50;;;;;16.77;61.69;102373.41;5042171;28;46155;-63
2022/10/06 01:38:46;;;;;;;;;1.75;1.00;;;;;16.76;61.62;102368.94;5058890;28;48133;-63
2022/10/06 01:41:11;;;;;;;;;1.00;1.00;;;;;16.71;61.53;102375.41;5060489;28;45399;-63
2022/10/06 01:43:37;;;;;;;;;1.50;0.00;;;;;16.75;61.80;102379.75;5050288;28;45452;-63
2022/10/06 01:46:02;;;;;;;;;2.00;1.50;;;;;16.66;61.85;102362.06;5042187;28;45391;-63
2022/10/06 01:48:27;;;;;;;;;3.00;1.75;;;;;16.77;61.61;102388.69;5060218;28;45309;-63
2022/10/06 01:50:54;;;;;;;;;1.25;1.25;;;;;16.82;61.59;102394.81;5057474;28;45312;-63
2022/10/06 01:53:20;;;;;;;;;4.00;1.50;;;;;16.75;61.77;102386.03;5052562;28;45391;-63
2022/10/06 01:55:46;;;;;;;;;5.00;1.00;;;;;16.61;61.66;102372.13;5060422;28;45519;-63
2022/10/06 01:58:11;;;;;;;;;5.25;1.00;;;;;16.58;61.53;102370.41;5060239;28;46134;-63
2022/10/06 02:00:38;;;;;;;;;6.75;0.00;;;;;16.71;61.83;102397.00;5059814;28;45427;-63
2022/10/06 02:03:03;;;;;;;;;5.25;1.00;;;;;16.57;61.33;102379.44;5055530;28;45355;-63
2022/10/06 02:05:28;;;;;;;;;2.75;1.00;;;;;16.57;61.51;102383.91;5060132;28;45548;-63
2022/10/06 02:07:54;;;;;;;;;1.50;1.50;;;;;16.50;61.30;102380.53;5059845;28;46531;-63
2022/10/06 02:10:19;;;;;;;;;1.00;1.00;;;;;16.67;61.36;102409.66;5060197;28;45460;-63
2022/10/06 02:12:49;;;;;;;;;4.25;1.00;;;;;16.46;61.45;102386.97;5041245;28;45663;-63
2022/10/06 02:15:14;;;;;;;;;3.00;2.00;;;;;16.44;61.64;102391.53;5059914;28;45571;-63
2022/10/06 02:17:40;;;;;;;;;1.50;1.50;;;;;16.59;61.57;102414.41;5041683;28;47084;-63
2022/10/06 02:20:06;;;;;;;;;1.75;1.00;;;;;16.40;61.67;102384.44;5059852;28;45387;-63
2022/10/06 02:22:35;;;;;;;;;2.50;1.00;;;;;16.41;61.79;102392.50;5059293;28;45477;-63
2022/10/06 02:25:01;;;;;;;;;3.50;1.00;;;;;16.40;61.54;102388.03;5059841;28;45438;-63
2022/10/06 02:27:26;;;;;;;;;2.00;1.00;;;;;16.28;61.22;102383.88;5059779;28;45449;-63
2022/10/06 02:29:51;;;;;;;;;7.25;1.00;;;;;16.55;61.56;102435.19;5059729;28;45446;-63
2022/10/06 02:32:17;;;;;;;;;3.00;1.75;;;;;16.28;61.58;102386.59;5058980;28;45462;-63
2022/10/06 02:34:42;;;;;;;;;1.00;1.00;;;;;16.37;61.78;102411.50;5049240;28;45541;-63
2022/10/06 02:37:07;;;;;;;;;2.00;1.00;;;;;16.29;61.79;102407.22;5059510;28;45581;-63
2022/10/06 02:39:33;;;;;;;;;1.25;0.00;;;;;16.27;61.55;102408.19;5059491;28;45760;-63
2022/10/06 02:41:58;;;;;;;;;0.00;0.00;;;;;16.25;61.73;102416.31;5059773;28;45549;-63
2022/10/06 02:44:24;;;;;;;;;1.00;1.00;;;;;16.18;61.62;102403.97;5049665;28;45553;-63
2022/10/06 02:46:50;;;;;;;;;1.75;1.50;;;;;16.21;61.61;102413.78;5059237;28;45434;-63
2022/10/06 02:49:15;;;;;;;;;1.00;1.00;;;;;16.19;61.69;102418.31;5059473;28;45337;-63
2022/10/06 02:51:40;;;;;;;;;3.00;1.00;;;;;16.36;61.74;102447.47;5032714;28;46149;-63
2022/10/06 02:54:06;;;;;;;;;3.00;2.00;;;;;16.03;61.78;102405.28;5038089;28;45348;-63
2022/10/06 02:56:31;;;;;;;;;4.00;1.00;;;;;16.15;61.44;102424.72;5059133;28;45360;-63
2022/10/06 02:58:56;;;;;;;;;2.50;1.00;;;;;16.09;61.57;102415.91;5059082;28;45441;-63
2022/10/06 03:01:25;;;;;;;;;4.00;1.00;;;;;16.31;61.66;102455.69;5059339;28;45451;-63
2022/10/06 03:03:50;;;;;;;;;4.00;1.00;;;;;16.09;61.60;102426.66;5056237;28;45446;-63
2022/10/06 03:06:22;;;;;;;;;1.25;1.00;;;;;16.07;61.33;102433.00;5058905;28;45319;-63
2022/10/06 03:08:52;;;;;;;;;3.00;1.00;;;;;16.13;61.44;102448.13;5059256;28;45339;-63
2022/10/06 03:11:22;;;;;;;;;3.75;2.00;;;;;16.04;61.27;102439.38;5058629;28;45379;-63
2022/10/06 03:13:50;;;;;;;;;1.00;0.00;;;;;16.20;61.53;102473.97;5057927;28;45550;-63
2022/10/06 03:16:15;;;;;;;;;0.75;0.75;;;;;16.15;61.34;102466.00;5058865;28;46357;-63
2022/10/06 03:18:48;;;;;;;;;1.00;0.75;;;;;16.07;61.48;102463.53;5059155;28;45461;-63
2022/10/06 03:21:14;;;;;;;;;1.75;0.00;;;;;15.90;61.53;102433.50;5059023;28;45272;-63
2022/10/06 03:23:41;;;;;;;;;2.75;0.00;;;;;15.84;61.23;102434.56;5048580;28;45328;-63
2022/10/06 03:26:06;;;;;;;;;0.25;0.25;;;;;15.86;61.50;102446.16;5056843;28;45964;-63
2022/10/06 03:28:31;;;;;;;;;2.75;1.75;;;;;15.89;61.58;102454.16;5040783;28;45781;-63
2022/10/06 03:31:01;;;;;;;;;0.00;0.00;;;;;15.84;61.55;102452.53;5057428;28;45410;-63
2022/10/06 03:33:28;;;;;;;;;0.75;0.75;;;;;15.99;61.45;102481.72;5058372;28;45340;-63
2022/10/06 03:36:08;;;;;;;;;0.50;0.50;;;;;15.82;61.57;102463.34;5058452;28;45330;-63
2022/10/06 03:38:34;;;;;;;;;2.00;0.00;;;;;15.80;61.90;102470.56;5058712;28;45500;-63
2022/10/06 03:41:08;;;;;;;;;2.00;1.00;;;;;15.94;61.84;102497.13;5058420;28;45491;-63
2022/10/06 03:43:35;;;;;;;;;2.00;1.00;;;;;15.70;61.98;102466.31;5046064;28;45388;-63
2022/10/06 03:46:02;;;;;;;;;2.00;2.00;;;;;15.93;61.78;102511.50;5058570;28;45369;-63
2022/10/06 03:48:32;;;;;;;;;1.00;1.00;;;;;15.67;61.89;102475.38;5040393;28;45363;-63
2022/10/06 03:51:10;;;;;;;;;3.50;1.75;;;;;15.69;61.97;102486.97;5058864;28;45347;-63
2022/10/06 03:53:35;;;;;;;;;3.00;1.00;;;;;15.87;61.97;102530.50;5052089;28;45414;-63
2022/10/06 03:56:20;;;;;;;;;4.75;1.25;;;;;15.84;61.86;102525.22;5060419;28;46014;-63
2022/10/06 03:58:49;;;;;;;;;2.75;1.00;;;;;15.59;62.05;102498.03;5031487;28;45324;-63
2022/10/06 04:01:21;;;;;;;;;1.00;1.00;;;;;15.65;61.94;102511.31;5044072;28;45515;-63
2022/10/06 04:03:46;;;;;;;;;1.50;0.75;;;;;15.57;62.12;102500.75;5054994;28;45442;-63
2022/10/06 04:06:18;;;;;;;;;2.00;1.00;;;;;15.71;62.08;102522.81;5061589;28;45447;-63
2022/10/06 04:08:46;;;;;;;;;1.75;1.00;;;;;15.67;61.76;102531.00;5062221;28;45461;-63
2022/10/06 04:11:19;;;;;;;;;4.00;1.25;;;;;15.63;62.13;102534.69;5031358;28;45482;-63
2022/10/06 04:13:44;;;;;;;;;1.50;1.00;;;;;15.72;61.79;102550.63;5043127;28;45332;-63
2022/10/06 04:16:17;;;;;;;;;5.00;1.75;;;;;15.74;62.14;102551.47;5061678;28;45378;-63
2022/10/06 04:18:44;;;;;;;;;1.25;1.00;;;;;15.63;61.92;102538.25;5061832;28;45466;-63
2022/10/06 04:21:11;;;;;;;;;4.50;1.00;;;;;15.52;61.98;102527.78;5043519;28;45347;-63
2022/10/06 04:23:36;;;;;;;;;2.25;1.00;;;;;15.62;61.89;102549.97;5058579;28;45530;-63
2022/10/06 04:26:08;;;;;;;;;1.50;1.00;;;;;15.59;61.95;102549.16;5061501;28;45420;-63
2022/10/06 04:28:35;;;;;;;;;3.50;2.00;;;;;15.46;62.20;102527.91;5061429;28;45811;-63
2022/10/06 04:31:00;;;;;;;;;2.50;0.25;;;;;15.59;62.14;102557.25;5061810;28;45513;-63
2022/10/06 04:33:27;;;;;;;;;4.25;1.00;;;;;15.36;62.29;102529.06;5061130;28;45300;-63
2022/10/06 04:36:00;;;;;;;;;2.50;0.00;;;;;15.35;62.46;102533.56;5061345;28;46364;-63
2022/10/06 04:38:26;;;;;;;;;1.00;1.00;;;;;15.38;62.43;102540.69;5057335;28;45534;-63
2022/10/06 04:40:52;;;;;;;;;5.00;2.25;;;;;15.42;62.07;102553.16;5058969;28;45507;-63
2022/10/06 04:43:17;;;;;;;;;3.00;1.25;;;;;15.31;62.20;102537.25;5049929;28;45312;-63
2022/10/06 04:45:42;;;;;;;;;2.00;2.00;;;;;15.31;62.37;102541.75;5060647;28;45567;-63
2022/10/06 04:48:08;;;;;;;;;1.00;1.00;;;;;15.31;62.27;102547.13;5061079;28;45373;-63
2022/10/06 04:50:33;;;;;;;;;4.50;1.00;;;;;15.46;62.24;102575.50;5061422;28;45343;-63
2022/10/06 04:52:58;;;;;;;;;2.75;1.00;;;;;15.46;62.53;102586.25;5055962;28;46547;-63
2022/10/06 04:55:24;;;;;;;;;2.75;1.00;;;;;15.26;62.71;102549.03;5061349;28;46210;-63
2022/10/06 04:57:49;;;;;;;;;2.50;2.00;;;;;15.22;62.49;102552.72;5061024;28;45370;-63
2022/10/06 05:00:24;;;;;;;;;3.25;1.75;;;;;15.38;62.67;102581.03;5061021;28;45667;-63
2022/10/06 05:02:54;;;;;;;;;1.00;1.00;;;;;15.19;62.80;102551.00;5042705;28;45726;-63
2022/10/06 05:05:20;;;;;;;;;3.50;2.00;;;;;15.22;62.68;102561.69;5061162;28;45359;-63
2022/10/06 05:07:46;;;;;;;;;3.00;2.00;;;;;15.15;62.53;102565.41;5060137;28;45664;-63
2022/10/06 05:10:12;;;;;;;;;2.00;2.00;;;;;15.06;62.67;102546.81;5051430;28;45411;-63
2022/10/06 05:12:37;;;;;;;;;1.75;1.50;;;;;15.11;62.50;102559.22;5054260;28;45326;-63
2022/10/06 05:15:03;;;;;;;;;3.00;3.00;;;;;15.13;62.76;102559.19;5054328;28;45552;-63
2022/10/06 05:17:28;;;;;;;;;5.75;4.00;;;;;15.14;62.54;102569.91;5060382;28;45433;-63
2022/10/06 05:19:54;;;;;;;;;3.75;2.75;;;;;15.00;62.55;102554.09;5061049;28;45344;-63
2022/10/06 05:22:19;;;;;;;;;2.50;2.00;;;;;15.22;62.57;102595.75;5058346;28;45335;-63
2022/10/06 05:24:45;;;;;;;;;1.25;1.25;;;;;15.21;62.72;102594.00;5060791;28;45658;-63
2022/10/06 05:27:10;;;;;;;;;2.50;2.25;;;;;15.19;62.69;102602.97;5042380;28;45424;-63
2022/10/06 05:29:35;;;;;;;;;4.00;2.00;;;;;14.81;62.47;102544.66;5060666;28;45458;-63
2022/10/06 05:32:01;;;;;;;;;1.75;1.50;;;;;14.98;62.99;102569.38;5055160;28;45441;-63
2022/10/06 05:34:26;;;;;;;;;4.00;3.00;;;;;14.88;62.79;102559.72;5059069;28;45469;-63
2022/10/06 05:36:51;;;;;;;;;2.25;0.25;;;;;14.92;62.76;102568.63;5048106;28;45635;-63
2022/10/06 05:39:17;;;;;;;;;5.50;2.00;;;;;14.90;62.70;102582.13;5060288;28;45375;-63
2022/10/06 05:41:42;;;;;;;;;4.00;2.00;;;;;14.82;62.97;102566.13;5060467;28;45516;-63
2022/10/06 05:44:08;;;;;;;;;4.25;2.50;;;;;14.89;62.98;102584.84;5070684;28;45503;-63
2022/10/06 05:46:34;;;;;;;;;4.00;1.50;;;;;14.92;62.82;102590.16;5058136;28;45521;-65
2022/10/06 05:49:06;;;;;;;;;3.25;2.25;;;;;14.90;62.92;102591.97;5057304;28;45646;-66
2022/10/06 05:51:34;;;;;;;;;2.00;1.00;;;;;14.86;62.89;102596.53;5059548;28;45497;-66
2022/10/06 05:54:00;;;;;;;;;2.75;2.00;;;;;15.01;62.99;102611.44;5060449;28;45386;-66
2022/10/06 05:56:27;;;;;;;;;2.25;1.00;;;;;14.79;63.24;102587.69;5054118;28;47055;-66
2022/10/06 05:58:54;;;;;;;;;4.50;1.50;;;;;14.86;63.32;102601.03;5058496;28;45470;-65
2022/10/06 06:01:26;;;;;;;;;4.25;2.75;;;;;14.84;63.02;102595.66;5058354;28;45602;-65
2022/10/06 06:03:58;;;;;;;;;3.00;2.00;;;;;14.80;62.97;102607.38;5059644;28;45429;-65
2022/10/06 06:06:29;;;;;;;;;5.00;2.25;;;;;14.92;62.86;102622.41;5059546;28;45718;-66
2022/10/06 06:09:00;;;;;;;;;6.25;2.00;;;;;14.80;63.19;102602.91;5059217;28;45427;-66
2022/10/06 06:11:27;;;;;;;;;2.00;1.00;;;;;14.72;62.82;102591.44;5059916;28;45285;-65
2022/10/06 06:13:56;;;;;;;;;3.00;3.00;;;;;14.79;63.06;102602.94;5040497;28;48084;-65
2022/10/06 06:16:22;;;;;;;;;4.50;0.25;;;;;14.72;63.37;102604.88;5059096;28;45635;-66
2022/10/06 06:18:48;;;;;;;;;2.25;1.00;;;;;14.79;63.05;102616.41;5057759;28;45537;-65
2022/10/06 06:21:13;;;;;;;;;3.25;2.00;;;;;14.69;63.11;102601.38;5057174;28;45372;-65
2022/10/06 06:23:41;;;;;;;;;5.00;1.75;;;;;14.61;63.26;102599.69;5059075;28;46624;-65
2022/10/06 06:26:14;;;;;;;;;2.00;2.00;;;;;14.61;63.25;102599.69;5057794;28;45568;-65
2022/10/06 06:28:41;;;;;;;;;3.00;1.50;;;;;14.68;63.60;102611.22;5059520;28;45333;-65
2022/10/06 06:31:09;;;;;;;;;3.50;0.75;;;;;14.73;63.52;102629.94;5036807;28;45635;-65
2022/10/06 06:33:38;;;;;;;;;4.50;3.00;;;;;14.68;63.33;102623.78;5055884;28;45517;-65
2022/10/06 06:36:16;;;;;;;;;2.75;2.75;;;;;14.53;63.20;102598.94;5058751;28;45478;-65
2022/10/06 06:38:45;;;;;;;;;4.50;3.25;;;;;14.64;63.33;102629.22;5058603;28;45482;-66
2022/10/06 06:41:15;;;;;;;;;5.25;4.00;;;;;14.66;63.39;102625.63;5058328;28;45513;-65
2022/10/06 06:43:41;;;;;;;;;6.25;4.00;;;;;14.46;63.56;102598.16;5033824;28;47554;-65
2022/10/06 06:46:06;;;;;;;;;5.00;4.00;;;;;14.71;63.47;102639.84;5036699;28;45344;-65
2022/10/06 06:48:32;;;;;;;;;7.75;2.00;;;;;14.81;63.28;102677.25;5040695;28;45505;-65
2022/10/06 06:50:57;;;;;;;;;8.00;4.00;;;;;14.85;63.50;102678.13;5055991;28;45359;-63
2022/10/06 06:53:24;;;;;;;;;4.75;4.75;;;;;14.63;63.40;102646.28;5054358;28;46081;-63
2022/10/06 06:55:50;;;;;;;;;5.50;3.00;;;;;14.62;63.56;102662.41;5056723;28;45522;-63
2022/10/06 06:58:19;;;;;;;;;7.00;4.75;;;;;14.73;63.80;102681.91;5058452;28;45457;-63
2022/10/06 07:00:47;;;;;;;;;9.25;4.00;;;;;14.45;63.64;102651.97;5054001;28;45294;-63
2022/10/06 07:03:18;;;;;;;;;4.00;3.00;;;;;14.53;63.73;102684.91;5056033;28;45407;-63
2022/10/06 07:05:45;;;;;;;;;6.50;3.75;;;;;14.45;63.84;102677.00;5056605;28;45718;-63
2022/10/06 07:08:14;;;;;;;;;4.25;4.25;;;;;14.59;63.94;102702.78;5058924;28;45596;-63
2022/10/06 07:10:43;;;;;;;;;6.50;5.00;;;;;14.51;64.08;102696.63;5058172;28;45454;-63
2022/10/06 07:13:13;;;;;;;;;3.50;3.50;;;;;14.39;63.92;102682.47;5040328;28;47153;-63
2022/10/06 07:26:40;;;;;;;;;6.75;5.00;;;;;14.34;64.69;102694.25;5049543;28;45438;-63
2022/10/06 07:29:06;;;;;;;;;5.00;4.00;;;;;14.48;64.80;102713.66;5058260;28;45388;-64
2022/10/06 07:31:34;;;;;;;;;6.00;5.00;;;;;14.49;64.99;102720.84;5058301;28;45572;-63
2022/10/06 07:34:01;;;;;;;;;6.00;4.75;;;;;14.36;65.06;102698.66;5057016;28;46745;-64
2022/10/06 07:36:27;;;;;;;;;7.00;5.75;;;;;14.44;64.66;102720.91;5038251;28;45373;-64
2022/10/06 07:38:54;;;;;;;;;7.75;6.00;;;;;14.54;64.93;102729.69;5058349;28;45323;-64
2022/10/06 07:41:21;;;;;;;;;5.00;4.00;;;;;14.59;65.32;102737.72;5049695;28;45541;-65
2022/10/06 07:43:47;;;;;;;;;7.75;4.75;;;;;14.54;64.92;102723.44;5055495;28;46571;-64
2022/10/06 07:46:14;;;;;;;;;5.00;3.50;;;;;14.58;64.99;102731.44;5054707;27;45740;-64
2022/10/06 07:48:40;;;;;;;;;5.00;2.75;;;;;14.57;64.93;102718.03;5041023;28;45574;-64
2022/10/06 07:51:13;;;;;;;;;3.00;2.25;;;;;14.59;64.91;102719.78;5053384;28;45544;-64
2022/10/06 07:53:39;;;;;;;;;4.00;3.00;;;;;14.74;65.04;102745.50;5060468;28;46353;-64
2022/10/06 07:56:06;;;;;;;;;9.00;3.25;;;;;14.60;64.80;102728.72;5055095;28;46719;-64
2022/10/06 07:58:33;;;;;;;;;4.50;2.50;;;;;14.64;64.99;102731.34;5056786;28;45355;-64
2022/10/06 08:01:07;;;;;;;;;3.00;2.00;;;;;14.65;64.54;102732.25;5038931;28;45520;-64
2022/10/06 08:03:35;;;;;;;;;4.75;4.50;;;;;14.85;64.74;102761.47;5057706;28;45595;-64
2022/10/06 08:06:01;;;;;;;;;5.25;2.50;;;;;14.83;64.74;102757.91;5039684;28;45554;-64
2022/10/06 08:08:30;;;;;;;;;5.00;3.00;;;;;14.92;64.57;102760.44;5042687;28;45522;-64
2022/10/06 08:10:57;;;;;;;;;5.25;2.50;;;;;14.74;63.98;102732.06;5056404;28;45402;-64
2022/10/06 08:13:23;;;;;;;;;4.25;3.00;;;;;14.84;63.79;102746.22;5033331;28;47472;-64
2022/10/06 08:15:50;;;;;;;;;4.50;2.50;;;;;14.84;63.78;102735.47;5055408;28;45702;-64
2022/10/06 08:18:17;;;;;;;;;7.00;3.75;;;;;14.86;63.81;102730.97;5052878;28;45866;-64
2022/10/06 08:20:42;;;;;;;;;3.00;1.00;;;;;14.89;63.61;102735.41;5035334;28;45593;-64
2022/10/06 08:23:10;;;;;;;;;7.00;3.00;;;;;14.97;63.59;102749.59;5038525;28;48005;-64
2022/10/06 08:25:41;;;;;;;;;2.00;2.00;;;;;14.95;63.49;102740.66;5056148;28;45367;-64
2022/10/06 08:28:07;;;;;;;;;3.25;2.00;;;;;15.03;63.65;102743.19;5056673;28;45544;-64
2022/10/06 08:30:33;;;;;;;;;8.25;2.00;;;;;15.04;63.35;102745.88;5038092;28;45496;-64
2022/10/06 08:32:59;;;;;;;;;3.75;2.00;;;;;15.23;63.50;102767.91;5056114;28;45677;-64
2022/10/06 08:35:24;;;;;;;;;2.00;2.00;;;;;15.09;63.71;102740.41;5035274;28;45799;-65
2022/10/06 08:37:49;;;;;;;;;6.00;2.75;;;;;15.09;63.66;102743.97;5055465;28;45587;-64
2022/10/06 08:40:15;;;;;;;;;3.25;2.75;;;;;15.16;63.81;102744.72;5055809;28;45693;-64
2022/10/06 08:42:48;;;;;;;;;1.75;1.75;;;;;15.24;63.09;102744.59;5057775;28;45481;-64
2022/10/06 08:45:34;;;;;;;;;5.00;2.75;;;;;15.48;63.34;102786.25;5059950;28;45707;-64
2022/10/06 08:48:03;;;;;;;;;4.75;2.25;;;;;15.36;63.09;102761.34;5024967;28;45696;-64
2022/10/06 08:50:37;;;;;;;;;2.25;2.00;;;;;15.52;63.45;102783.47;5057626;28;45343;-64
2022/10/06 08:53:37;;;;;;;;;3.75;2.50;;;;;15.61;63.26;102792.28;5052114;28;46054;-64
2022/10/06 08:56:11;;;;;;;;;5.00;1.00;;;;;15.66;62.87;102798.44;5062904;28;45547;-64
2022/10/06 08:58:49;;;;;;;;;3.25;2.00;;;;;15.52;62.71;102775.41;5075237;27;45867;-64
2022/10/06 09:01:17;;;;;;;;;3.25;2.00;;;;;15.73;63.12;102798.28;5056676;28;45432;-64
2022/10/06 09:03:48;;;;;;;;;6.25;2.00;;;;;15.63;62.57;102776.97;5059595;28;45561;-64
2022/10/06 09:06:36;;;;;;;;;4.00;2.75;;;;;15.67;62.50;102770.59;5055376;28;45763;-64
2022/10/06 09:09:20;;;;;;;;;4.25;2.75;;;;;15.68;62.69;102769.69;5059436;28;45617;-64
2022/10/06 09:12:03;;;;;;;;;2.50;1.50;;;;;15.95;62.64;102805.03;5059055;28;45833;-64
2022/10/06 09:14:46;;;;;;;;;4.00;2.00;;;;;15.99;62.28;102806.72;5059570;28;45691;-64
2022/10/06 09:17:36;;;;;;;;;5.00;2.75;;;;;15.82;62.41;102767.63;5058615;28;45500;-64
2022/10/06 09:20:19;;;;;;;;;4.75;3.00;;;;;15.90;61.96;102770.13;5041221;28;45347;-64
2022/10/06 09:22:47;;;;;;;;;3.25;2.75;;;;;15.99;62.39;102774.41;5034820;28;45355;-64
2022/10/06 09:25:27;;;;;;;;;3.50;2.50;;;;;16.20;62.15;102805.38;5038952;28;48301;-64
2022/10/06 09:27:54;;;;;;;;;4.00;3.00;;;;;16.03;61.89;102771.63;5058532;28;45692;-64
2022/10/06 09:30:20;;;;;;;;;1.00;1.00;;;;;16.03;61.87;102770.75;5058881;28;45478;-64
2022/10/06 09:32:50;;;;;;;;;5.00;1.75;;;;;16.16;62.03;102785.69;5059229;28;45533;-64
2022/10/06 09:35:19;;;;;;;;;4.50;2.50;;;;;16.36;61.88;102812.19;5039962;28;47384;-64
2022/10/06 09:37:56;;;;;;;;;4.00;3.00;;;;;16.16;61.20;102766.84;5038345;28;45623;-64
2022/10/06 09:40:35;;;;;;;;;3.00;1.75;;;;;16.41;61.37;102810.25;5057430;28;45351;-64
2022/10/06 09:43:03;;;;;;;;;3.75;2.75;;;;;16.43;61.80;102804.84;5060502;28;45499;-64
2022/10/06 09:45:30;;;;;;;;;3.75;2.00;;;;;16.28;61.35;102766.53;5060574;28;45486;-64
2022/10/06 09:48:11;;;;;;;;;4.50;2.00;;;;;16.29;61.17;102768.31;5040752;28;45334;-64
2022/10/06 09:50:37;;;;;;;;;3.00;1.00;;;;;16.35;60.88;102767.28;5063015;28;45453;-64
2022/10/06 09:53:15;;;;;;;;;4.00;2.00;;;;;16.46;60.60;102780.50;5058054;28;45428;-64
2022/10/06 09:55:42;;;;;;;;;6.00;2.00;;;;;16.65;60.74;102805.19;5057433;28;45419;-64
2022/10/06 09:58:24;;;;;;;;;6.00;2.25;;;;;16.66;60.54;102801.56;5057314;28;45548;-64
2022/10/06 10:01:05;;;;;;;;;3.00;1.00;;;;;16.65;60.29;102797.97;5059113;28;45473;-64
2022/10/06 10:03:40;;;;;;;;;5.00;2.00;;;;;16.73;60.83;102800.47;5054672;28;45751;-64
2022/10/06 10:06:05;;;;;;;;;4.50;2.00;;;;;16.65;60.10;102783.59;5058519;28;46322;-65
2022/10/06 10:08:31;;;;;;;;;7.00;3.50;;;;;16.53;59.91;102762.38;5057021;28;45508;-65
2022/10/06 10:13:55;;;;;;;;;2.25;2.25;;;;;16.65;59.84;102779.09;5057953;28;45383;-65
2022/10/06 10:16:29;;;;;;;;;2.00;2.00;;;;;16.85;59.68;102808.28;5061111;27;45531;-64
2022/10/06 10:18:56;;;;;;;;;1.25;1.00;;;;;16.52;59.81;102745.28;5041558;28;45367;-65
2022/10/06 10:21:34;;;;;;;;;2.50;2.00;;;;;16.71;59.18;102769.09;5058183;28;45632;-64
2022/10/06 10:24:04;;;;;;;;;5.00;1.00;;;;;16.77;59.61;102766.22;5033597;28;45509;-65
2022/10/06 10:26:55;;;;;;;;;5.00;3.00;;;;;16.73;59.83;102754.63;5056283;28;45712;-65
2022/10/06 10:29:21;;;;;;;;;4.00;2.00;;;;;17.04;59.17;102797.91;5040284;28;45363;-64
2022/10/06 10:32:11;;;;;;;;;4.75;1.00;;;;;17.07;58.72;102794.22;5058196;28;45482;-65
2022/10/06 10:34:42;;;;;;;;;3.00;2.00;;;;;17.05;59.13;102796.09;5056709;28;45529;-64
2022/10/06 10:37:16;;;;;;;;;3.00;2.00;;;;;16.98;59.53;102767.50;5055067;28;45522;-65
2022/10/06 10:39:53;;;;;;;;;1.50;1.50;;;;;17.13;59.65;102775.19;5059254;28;45632;-65
2022/10/06 10:42:48;;;;;;;;;7.00;3.00;;;;;17.23;58.68;102771.28;5058389;28;45739;-65
2022/10/06 10:45:22;;;;;;;;;3.50;3.00;;;;;17.16;58.78;102760.72;5021914;28;45320;-65
2022/10/06 10:47:49;;;;;;;;;1.75;1.75;;;;;17.31;58.54;102772.91;5057504;28;45518;-65
2022/10/06 10:50:34;;;;;;;;;4.75;2.00;;;;;17.41;57.86;102793.31;5058640;28;45298;-65
2022/10/06 10:53:15;;;;;;;;;2.75;1.75;;;;;17.44;57.49;102786.91;5046490;28;45328;-65
2022/10/06 10:55:43;;;;;;;;;3.00;2.00;;;;;17.44;56.91;102784.22;5055466;28;46414;-65
2022/10/06 10:58:33;;;;;;;;;2.75;2.00;;;;;17.44;56.93;102787.84;5059193;28;45490;-65
2022/10/06 11:01:19;;;;;;;;;2.25;2.00;;;;;17.48;56.52;102784.09;5062653;27;45762;-65
2022/10/06 11:03:55;;;;;;;;;2.00;2.00;;;;;17.26;56.53;102751.44;5059076;28;45418;-65
2022/10/06 11:06:31;;;;;;;;;1.75;1.00;;;;;17.50;56.09;102782.22;5057486;28;45395;-65
2022/10/06 11:09:06;;;;;;;;;3.00;2.00;;;;;17.36;55.80;102754.78;5058203;28;46556;-65
2022/10/06 11:11:52;;;;;;;;;1.75;0.75;;;;;17.54;55.78;102783.03;5057125;28;45487;-65
2022/10/06 11:14:43;;;;;;;;;3.00;2.50;;;;;17.39;55.55;102751.94;5050731;28;45414;-65
2022/10/06 11:17:22;;;;;;;;;0.25;0.00;;;;;17.40;55.64;102751.03;5019453;28;45511;-65
2022/10/06 11:20:00;;;;;;;;;1.25;1.25;;;;;17.52;55.66;102772.25;5058918;28;46433;-65
2022/10/06 11:22:40;;;;;;;;;1.00;0.50;;;;;17.60;54.71;102782.84;5057889;28;45459;-64
2022/10/06 11:25:24;;;;;;;;;0.50;0.00;;;;;17.63;54.97;102785.47;5047427;28;45485;-65
2022/10/06 11:28:16;;;;;;;;;1.50;0.50;;;;;17.65;54.59;102780.91;5044168;28;45510;-65
2022/10/06 11:30:51;;;;;;;;;2.00;0.75;;;;;17.50;53.88;102751.66;5058652;28;45420;-65
2022/10/06 11:33:25;;;;;;;;;1.00;1.00;;;;;17.51;54.55;102748.91;5056305;28;45697;-65
2022/10/06 11:35:51;;;;;;;;;2.50;0.50;;;;;17.69;54.21;102765.47;5058158;28;45567;-65
2022/10/06 11:38:40;;;;;;;;;4.75;0.50;;;;;17.54;53.43;102729.00;5057163;28;45592;-65
2022/10/06 11:41:20;;;;;;;;;2.75;0.50;;;;;17.59;53.16;102738.78;5053899;28;45544;-65
2022/10/06 11:43:48;;;;;;;;;1.75;1.00;;;;;17.52;53.27;102723.66;5056638;28;45480;-65
2022/10/06 11:46:23;;;;;;;;;1.25;1.00;;;;;17.75;53.12;102759.91;5059742;28;45494;-65
2022/10/06 11:48:48;;;;;;;;;1.00;0.00;;;;;17.54;52.99;102716.41;5057050;28;45525;-65
2022/10/06 11:51:22;;;;;;;;;1.25;0.50;;;;;17.78;53.12;102755.28;5058536;28;45461;-65